sensor_id;sensor_type;location;lat;lon;timestamp;P1;durP1;ratioP1;P2;durP2;ratioP2
19183;SDS011;9724;51.194;6.856;2023-05-07T00:02:15;4.33;;;4.03;;
19183;SDS011;9724;51.194;6.856;2023-05-07T00:04:41;5.37;;;4.17;;
19183;SDS011;9724;51.194;6.856;2023-05-07T00:07:08;8.93;;;4.13;;
19183;SDS011;9724;51.194;6.856;2023-05-07T00:09:35;4.50;;;4.10;;
19183;SDS011;9724;51.194;6.856;2023-05-07T00:12:02;3.50;;;3.20;;
19183;SDS011;9724;51.194;6.856;2023-05-07T00:14:28;6.90;;;3.93;;
19183;SDS011;9724;51.194;6.856;2023-05-07T00:16:54;6.50;;;4.03;;
19183;SDS011;9724;51.194;6.856;2023-05-07T00:19:21;6.77;;;3.80;;
19183;SDS011;9724;51.194;6.856;2023-05-07T00:21:47;7.33;;;4.00;;
19183;SDS011;9724;51.194;6.856;2023-05-07T00:24:14;5.50;;;3.90;;
19183;SDS011;9724;51.194;6.856;2023-05-07T00:26:40;8.83;;;3.97;;
19183;SDS011;9724;51.194;6.856;2023-05-07T00:29:12;6.83;;;3.90;;
19183;SDS011;9724;51.194;6.856;2023-05-07T00:31:38;4.97;;;4.07;;
19183;SDS011;9724;51.194;6.856;2023-05-07T00:34:04;7.60;;;4.03;;
19183;SDS011;9724;51.194;6.856;2023-05-07T00:36:31;8.07;;;4.20;;
19183;SDS011;9724;51.194;6.856;2023-05-07T00:38:58;6.87;;;4.00;;
19183;SDS011;9724;51.194;6.856;2023-05-07T00:41:26;9.23;;;3.83;;
19183;SDS011;9724;51.194;6.856;2023-05-07T00:43:52;4.43;;;3.70;;
19183;SDS011;9724;51.194;6.856;2023-05-07T00:46:18;5.10;;;3.80;;
19183;SDS011;9724;51.194;6.856;2023-05-07T00:48:46;7.27;;;4.07;;
19183;SDS011;9724;51.194;6.856;2023-05-07T00:51:12;4.73;;;4.33;;
19183;SDS011;9724;51.194;6.856;2023-05-07T00:53:39;8.10;;;4.20;;
19183;SDS011;9724;51.194;6.856;2023-05-07T00:56:05;6.47;;;3.70;;
19183;SDS011;9724;51.194;6.856;2023-05-07T00:58:33;4.03;;;3.53;;
19183;SDS011;9724;51.194;6.856;2023-05-07T01:00:59;4.43;;;3.70;;
19183;SDS011;9724;51.194;6.856;2023-05-07T01:03:26;4.20;;;3.83;;
19183;SDS011;9724;51.194;6.856;2023-05-07T01:05:53;7.17;;;4.00;;
19183;SDS011;9724;51.194;6.856;2023-05-07T01:08:20;4.40;;;4.00;;
19183;SDS011;9724;51.194;6.856;2023-05-07T01:10:47;4.60;;;3.87;;
19183;SDS011;9724;51.194;6.856;2023-05-07T01:13:14;4.10;;;3.60;;
19183;SDS011;9724;51.194;6.856;2023-05-07T01:15:41;4.40;;;4.00;;
19183;SDS011;9724;51.194;6.856;2023-05-07T01:18:08;5.53;;;3.60;;
19183;SDS011;9724;51.194;6.856;2023-05-07T01:20:34;5.40;;;4.00;;
19183;SDS011;9724;51.194;6.856;2023-05-07T01:23:01;7.23;;;3.90;;
19183;SDS011;9724;51.194;6.856;2023-05-07T01:25:29;8.90;;;4.00;;
19183;SDS011;9724;51.194;6.856;2023-05-07T01:27:55;6.97;;;3.70;;
19183;SDS011;9724;51.194;6.856;2023-05-07T01:30:22;5.40;;;4.00;;
19183;SDS011;9724;51.194;6.856;2023-05-07T01:32:49;6.70;;;3.90;;
19183;SDS011;9724;51.194;6.856;2023-05-07T01:35:18;4.17;;;3.87;;
19183;SDS011;9724;51.194;6.856;2023-05-07T01:45:06;7.17;;;4.50;;
19183;SDS011;9724;51.194;6.856;2023-05-07T01:47:33;7.77;;;4.63;;
19183;SDS011;9724;51.194;6.856;2023-05-07T01:49:59;8.93;;;4.17;;
19183;SDS011;9724;51.194;6.856;2023-05-07T01:52:27;8.93;;;4.57;;
19183;SDS011;9724;51.194;6.856;2023-05-07T01:54:53;5.77;;;4.00;;
19183;SDS011;9724;51.194;6.856;2023-05-07T01:57:19;6.53;;;4.10;;
19183;SDS011;9724;51.194;6.856;2023-05-07T01:59:46;4.63;;;4.23;;
19183;SDS011;9724;51.194;6.856;2023-05-07T02:02:13;5.60;;;4.00;;
19183;SDS011;9724;51.194;6.856;2023-05-07T02:04:39;6.50;;;4.27;;
19183;SDS011;9724;51.194;6.856;2023-05-07T02:07:07;4.87;;;4.30;;
19183;SDS011;9724;51.194;6.856;2023-05-07T02:09:33;6.43;;;3.90;;
19183;SDS011;9724;51.194;6.856;2023-05-07T02:11:59;4.27;;;3.90;;
19183;SDS011;9724;51.194;6.856;2023-05-07T02:14:25;6.90;;;4.33;;
19183;SDS011;9724;51.194;6.856;2023-05-07T02:16:52;4.10;;;3.70;;
19183;SDS011;9724;51.194;6.856;2023-05-07T02:19:19;6.30;;;3.70;;
19183;SDS011;9724;51.194;6.856;2023-05-07T02:21:46;4.23;;;3.83;;
19183;SDS011;9724;51.194;6.856;2023-05-07T02:24:13;5.07;;;3.90;;
19183;SDS011;9724;51.194;6.856;2023-05-07T02:26:39;7.43;;;3.87;;
19183;SDS011;9724;51.194;6.856;2023-05-07T02:29:05;5.57;;;4.00;;
19183;SDS011;9724;51.194;6.856;2023-05-07T02:31:31;5.20;;;4.30;;
19183;SDS011;9724;51.194;6.856;2023-05-07T02:33:59;8.03;;;4.03;;
19183;SDS011;9724;51.194;6.856;2023-05-07T02:36:26;5.97;;;4.00;;
19183;SDS011;9724;51.194;6.856;2023-05-07T02:38:52;6.10;;;3.80;;
19183;SDS011;9724;51.194;6.856;2023-05-07T02:41:18;5.00;;;3.53;;
19183;SDS011;9724;51.194;6.856;2023-05-07T02:43:45;6.67;;;3.70;;
19183;SDS011;9724;51.194;6.856;2023-05-07T02:46:12;4.87;;;3.80;;
19183;SDS011;9724;51.194;6.856;2023-05-07T02:48:38;4.10;;;3.70;;
19183;SDS011;9724;51.194;6.856;2023-05-07T02:51:04;4.33;;;4.00;;
19183;SDS011;9724;51.194;6.856;2023-05-07T02:53:31;6.60;;;3.57;;
19183;SDS011;9724;51.194;6.856;2023-05-07T02:55:58;10.13;;;3.70;;
19183;SDS011;9724;51.194;6.856;2023-05-07T02:58:26;5.13;;;3.57;;
19183;SDS011;9724;51.194;6.856;2023-05-07T03:00:52;6.07;;;3.50;;
19183;SDS011;9724;51.194;6.856;2023-05-07T03:03:20;7.20;;;3.57;;
19183;SDS011;9724;51.194;6.856;2023-05-07T03:05:46;4.63;;;3.47;;
19183;SDS011;9724;51.194;6.856;2023-05-07T03:08:12;5.07;;;3.70;;
19183;SDS011;9724;51.194;6.856;2023-05-07T03:10:39;5.03;;;3.40;;
19183;SDS011;9724;51.194;6.856;2023-05-07T03:13:05;5.87;;;3.17;;
19183;SDS011;9724;51.194;6.856;2023-05-07T03:15:32;4.57;;;3.57;;
19183;SDS011;9724;51.194;6.856;2023-05-07T03:17:58;3.80;;;3.27;;
19183;SDS011;9724;51.194;6.856;2023-05-07T03:20:24;4.17;;;3.73;;
19183;SDS011;9724;51.194;6.856;2023-05-07T03:22:51;3.70;;;3.33;;
19183;SDS011;9724;51.194;6.856;2023-05-07T03:25:17;4.13;;;3.27;;
19183;SDS011;9724;51.194;6.856;2023-05-07T03:27:44;4.30;;;3.27;;
19183;SDS011;9724;51.194;6.856;2023-05-07T03:30:11;4.87;;;3.10;;
19183;SDS011;9724;51.194;6.856;2023-05-07T03:32:38;4.77;;;3.00;;
19183;SDS011;9724;51.194;6.856;2023-05-07T03:35:04;5.70;;;3.30;;
19183;SDS011;9724;51.194;6.856;2023-05-07T03:37:31;4.30;;;3.27;;
19183;SDS011;9724;51.194;6.856;2023-05-07T03:39:57;6.33;;;2.83;;
19183;SDS011;9724;51.194;6.856;2023-05-07T03:42:23;2.97;;;2.70;;
19183;SDS011;9724;51.194;6.856;2023-05-07T03:44:50;3.40;;;3.00;;
19183;SDS011;9724;51.194;6.856;2023-05-07T03:47:17;4.40;;;2.67;;
19183;SDS011;9724;51.194;6.856;2023-05-07T03:49:43;3.07;;;2.77;;
19183;SDS011;9724;51.194;6.856;2023-05-07T03:52:09;3.80;;;3.20;;
19183;SDS011;9724;51.194;6.856;2023-05-07T03:54:35;3.30;;;3.00;;
19183;SDS011;9724;51.194;6.856;2023-05-07T03:57:02;3.50;;;3.20;;
19183;SDS011;9724;51.194;6.856;2023-05-07T03:59:28;4.53;;;2.93;;
19183;SDS011;9724;51.194;6.856;2023-05-07T04:01:55;3.20;;;3.00;;
19183;SDS011;9724;51.194;6.856;2023-05-07T04:04:21;4.80;;;3.13;;
19183;SDS011;9724;51.194;6.856;2023-05-07T04:06:48;3.30;;;2.90;;
19183;SDS011;9724;51.194;6.856;2023-05-07T04:09:14;5.27;;;2.90;;
19183;SDS011;9724;51.194;6.856;2023-05-07T04:11:40;3.40;;;2.80;;
19183;SDS011;9724;51.194;6.856;2023-05-07T04:14:07;3.10;;;2.77;;
19183;SDS011;9724;51.194;6.856;2023-05-07T04:16:34;3.97;;;3.57;;
19183;SDS011;9724;51.194;6.856;2023-05-07T04:19:01;3.50;;;3.30;;
19183;SDS011;9724;51.194;6.856;2023-05-07T04:21:27;4.33;;;3.70;;
19183;SDS011;9724;51.194;6.856;2023-05-07T04:23:53;3.67;;;3.33;;
19183;SDS011;9724;51.194;6.856;2023-05-07T04:26:19;3.30;;;3.10;;
19183;SDS011;9724;51.194;6.856;2023-05-07T04:28:46;4.77;;;3.10;;
19183;SDS011;9724;51.194;6.856;2023-05-07T04:31:13;7.73;;;3.07;;
19183;SDS011;9724;51.194;6.856;2023-05-07T04:33:39;10.67;;;2.97;;
19183;SDS011;9724;51.194;6.856;2023-05-07T04:36:06;2.77;;;2.67;;
19183;SDS011;9724;51.194;6.856;2023-05-07T04:38:33;3.10;;;2.80;;
19183;SDS011;9724;51.194;6.856;2023-05-07T04:41:02;3.50;;;2.87;;
19183;SDS011;9724;51.194;6.856;2023-05-07T04:43:29;5.40;;;2.57;;
19183;SDS011;9724;51.194;6.856;2023-05-07T04:45:55;3.37;;;2.83;;
19183;SDS011;9724;51.194;6.856;2023-05-07T04:48:22;11.13;;;3.03;;
19183;SDS011;9724;51.194;6.856;2023-05-07T04:50:48;5.10;;;2.80;;
19183;SDS011;9724;51.194;6.856;2023-05-07T04:53:15;3.80;;;2.37;;
19183;SDS011;9724;51.194;6.856;2023-05-07T04:55:41;2.83;;;2.57;;
19183;SDS011;9724;51.194;6.856;2023-05-07T04:58:08;3.43;;;2.63;;
19183;SDS011;9724;51.194;6.856;2023-05-07T05:00:35;4.43;;;2.63;;
19183;SDS011;9724;51.194;6.856;2023-05-07T05:03:01;4.63;;;2.63;;
19183;SDS011;9724;51.194;6.856;2023-05-07T05:05:27;3.77;;;2.90;;
19183;SDS011;9724;51.194;6.856;2023-05-07T05:07:54;2.77;;;2.67;;
19183;SDS011;9724;51.194;6.856;2023-05-07T05:10:21;3.43;;;2.50;;
19183;SDS011;9724;51.194;6.856;2023-05-07T05:12:50;5.83;;;2.70;;
19183;SDS011;9724;51.194;6.856;2023-05-07T05:15:16;3.00;;;2.80;;
19183;SDS011;9724;51.194;6.856;2023-05-07T05:17:42;2.57;;;2.37;;
19183;SDS011;9724;51.194;6.856;2023-05-07T05:20:09;2.80;;;2.50;;
19183;SDS011;9724;51.194;6.856;2023-05-07T05:22:36;5.33;;;2.50;;
19183;SDS011;9724;51.194;6.856;2023-05-07T05:25:03;4.03;;;2.57;;
19183;SDS011;9724;51.194;6.856;2023-05-07T05:27:30;3.23;;;2.60;;
19183;SDS011;9724;51.194;6.856;2023-05-07T05:29:56;5.50;;;2.63;;
19183;SDS011;9724;51.194;6.856;2023-05-07T05:32:22;11.57;;;2.40;;
19183;SDS011;9724;51.194;6.856;2023-05-07T05:34:49;2.60;;;2.40;;
19183;SDS011;9724;51.194;6.856;2023-05-07T05:37:15;3.90;;;2.87;;
19183;SDS011;9724;51.194;6.856;2023-05-07T05:39:41;3.90;;;2.63;;
19183;SDS011;9724;51.194;6.856;2023-05-07T05:42:07;4.13;;;2.50;;
19183;SDS011;9724;51.194;6.856;2023-05-07T05:44:34;5.37;;;2.60;;
19183;SDS011;9724;51.194;6.856;2023-05-07T05:47:00;4.37;;;2.30;;
19183;SDS011;9724;51.194;6.856;2023-05-07T05:49:27;2.87;;;2.60;;
19183;SDS011;9724;51.194;6.856;2023-05-07T05:51:53;2.90;;;2.60;;
19183;SDS011;9724;51.194;6.856;2023-05-07T05:54:19;2.83;;;2.63;;
19183;SDS011;9724;51.194;6.856;2023-05-07T05:56:45;3.10;;;2.37;;
19183;SDS011;9724;51.194;6.856;2023-05-07T05:59:12;2.83;;;2.30;;
19183;SDS011;9724;51.194;6.856;2023-05-07T06:01:39;3.40;;;2.40;;
19183;SDS011;9724;51.194;6.856;2023-05-07T06:04:05;2.67;;;2.47;;
19183;SDS011;9724;51.194;6.856;2023-05-07T06:06:31;4.07;;;2.27;;
19183;SDS011;9724;51.194;6.856;2023-05-07T06:08:57;4.23;;;2.40;;
19183;SDS011;9724;51.194;6.856;2023-05-07T06:11:23;2.70;;;2.50;;
19183;SDS011;9724;51.194;6.856;2023-05-07T06:13:50;2.57;;;2.37;;
19183;SDS011;9724;51.194;6.856;2023-05-07T06:16:16;2.87;;;2.50;;
19183;SDS011;9724;51.194;6.856;2023-05-07T06:18:43;4.43;;;2.30;;
19183;SDS011;9724;51.194;6.856;2023-05-07T06:21:13;3.27;;;2.23;;
19183;SDS011;9724;51.194;6.856;2023-05-07T06:23:41;3.10;;;2.10;;
19183;SDS011;9724;51.194;6.856;2023-05-07T06:26:07;2.87;;;2.20;;
19183;SDS011;9724;51.194;6.856;2023-05-07T06:28:34;4.17;;;2.57;;
19183;SDS011;9724;51.194;6.856;2023-05-07T06:31:11;2.10;;;2.00;;
19183;SDS011;9724;51.194;6.856;2023-05-07T06:33:38;4.63;;;2.57;;
19183;SDS011;9724;51.194;6.856;2023-05-07T06:36:05;3.63;;;2.23;;
19183;SDS011;9724;51.194;6.856;2023-05-07T06:38:32;3.67;;;2.60;;
19183;SDS011;9724;51.194;6.856;2023-05-07T06:40:58;2.40;;;2.20;;
19183;SDS011;9724;51.194;6.856;2023-05-07T06:43:24;2.70;;;2.30;;
19183;SDS011;9724;51.194;6.856;2023-05-07T06:45:51;3.33;;;2.10;;
19183;SDS011;9724;51.194;6.856;2023-05-07T06:48:17;2.60;;;2.30;;
19183;SDS011;9724;51.194;6.856;2023-05-07T06:50:43;2.40;;;2.20;;
19183;SDS011;9724;51.194;6.856;2023-05-07T06:53:10;2.30;;;2.10;;
19183;SDS011;9724;51.194;6.856;2023-05-07T06:55:36;1.80;;;1.73;;
19183;SDS011;9724;51.194;6.856;2023-05-07T06:58:03;2.00;;;1.90;;
19183;SDS011;9724;51.194;6.856;2023-05-07T07:00:29;2.00;;;1.90;;
19183;SDS011;9724;51.194;6.856;2023-05-07T07:02:56;3.23;;;1.83;;
19183;SDS011;9724;51.194;6.856;2023-05-07T07:05:23;4.40;;;2.27;;
19183;SDS011;9724;51.194;6.856;2023-05-07T07:07:49;1.90;;;1.80;;
19183;SDS011;9724;51.194;6.856;2023-05-07T07:10:18;2.97;;;1.70;;
19183;SDS011;9724;51.194;6.856;2023-05-07T07:12:45;3.90;;;1.53;;
19183;SDS011;9724;51.194;6.856;2023-05-07T07:15:11;4.97;;;1.80;;
19183;SDS011;9724;51.194;6.856;2023-05-07T07:17:39;2.00;;;1.80;;
19183;SDS011;9724;51.194;6.856;2023-05-07T07:20:05;3.63;;;1.70;;
19183;SDS011;9724;51.194;6.856;2023-05-07T07:22:33;1.73;;;1.60;;
19183;SDS011;9724;51.194;6.856;2023-05-07T07:24:59;1.93;;;1.67;;
19183;SDS011;9724;51.194;6.856;2023-05-07T07:27:26;1.67;;;1.60;;
19183;SDS011;9724;51.194;6.856;2023-05-07T07:29:52;2.27;;;1.70;;
19183;SDS011;9724;51.194;6.856;2023-05-07T07:32:18;3.37;;;1.70;;
19183;SDS011;9724;51.194;6.856;2023-05-07T07:34:44;1.97;;;1.73;;
19183;SDS011;9724;51.194;6.856;2023-05-07T07:37:11;1.80;;;1.53;;
19183;SDS011;9724;51.194;6.856;2023-05-07T07:39:37;3.43;;;1.67;;
19183;SDS011;9724;51.194;6.856;2023-05-07T07:42:03;3.20;;;1.93;;
19183;SDS011;9724;51.194;6.856;2023-05-07T07:44:30;1.80;;;1.70;;
19183;SDS011;9724;51.194;6.856;2023-05-07T07:46:57;2.97;;;2.00;;
19183;SDS011;9724;51.194;6.856;2023-05-07T07:49:23;2.83;;;1.73;;
19183;SDS011;9724;51.194;6.856;2023-05-07T07:51:49;1.83;;;1.73;;
19183;SDS011;9724;51.194;6.856;2023-05-07T07:54:16;2.10;;;1.70;;
19183;SDS011;9724;51.194;6.856;2023-05-07T07:56:42;2.43;;;1.53;;
19183;SDS011;9724;51.194;6.856;2023-05-07T07:59:09;1.73;;;1.63;;
19183;SDS011;9724;51.194;6.856;2023-05-07T08:01:36;2.17;;;1.70;;
19183;SDS011;9724;51.194;6.856;2023-05-07T08:04:02;5.53;;;1.80;;
19183;SDS011;9724;51.194;6.856;2023-05-07T08:06:29;1.70;;;1.60;;
19183;SDS011;9724;51.194;6.856;2023-05-07T08:08:55;1.87;;;1.63;;
19183;SDS011;9724;51.194;6.856;2023-05-07T08:11:21;3.73;;;1.73;;
19183;SDS011;9724;51.194;6.856;2023-05-07T08:13:47;3.40;;;1.77;;
19183;SDS011;9724;51.194;6.856;2023-05-07T08:16:14;3.57;;;1.63;;
19183;SDS011;9724;51.194;6.856;2023-05-07T08:18:41;2.10;;;1.63;;
19183;SDS011;9724;51.194;6.856;2023-05-07T08:21:07;2.10;;;1.70;;
19183;SDS011;9724;51.194;6.856;2023-05-07T08:23:34;2.60;;;1.80;;
19183;SDS011;9724;51.194;6.856;2023-05-07T08:26:00;5.30;;;1.80;;
19183;SDS011;9724;51.194;6.856;2023-05-07T08:28:26;3.27;;;1.70;;
19183;SDS011;9724;51.194;6.856;2023-05-07T08:30:53;2.30;;;1.60;;
19183;SDS011;9724;51.194;6.856;2023-05-07T08:33:19;3.03;;;1.63;;
19183;SDS011;9724;51.194;6.856;2023-05-07T08:35:46;1.83;;;1.70;;
19183;SDS011;9724;51.194;6.856;2023-05-07T08:38:12;2.00;;;1.90;;
19183;SDS011;9724;51.194;6.856;2023-05-07T08:40:39;6.37;;;1.60;;
19183;SDS011;9724;51.194;6.856;2023-05-07T08:43:06;1.57;;;1.50;;
19183;SDS011;9724;51.194;6.856;2023-05-07T08:45:33;1.47;;;1.40;;
19183;SDS011;9724;51.194;6.856;2023-05-07T08:48:00;4.17;;;1.73;;
19183;SDS011;9724;51.194;6.856;2023-05-07T08:50:28;6.27;;;1.60;;
19183;SDS011;9724;51.194;6.856;2023-05-07T08:52:55;3.03;;;1.67;;
19183;SDS011;9724;51.194;6.856;2023-05-07T08:55:22;6.53;;;2.10;;
19183;SDS011;9724;51.194;6.856;2023-05-07T08:57:50;3.17;;;1.87;;
19183;SDS011;9724;51.194;6.856;2023-05-07T09:00:18;1.90;;;1.80;;
19183;SDS011;9724;51.194;6.856;2023-05-07T09:02:45;4.13;;;1.70;;
19183;SDS011;9724;51.194;6.856;2023-05-07T09:05:11;2.10;;;1.90;;
19183;SDS011;9724;51.194;6.856;2023-05-07T09:07:37;2.97;;;1.80;;
19183;SDS011;9724;51.194;6.856;2023-05-07T09:10:05;4.47;;;1.80;;
19183;SDS011;9724;51.194;6.856;2023-05-07T09:12:32;2.73;;;1.80;;
19183;SDS011;9724;51.194;6.856;2023-05-07T09:15:00;2.03;;;1.60;;
19183;SDS011;9724;51.194;6.856;2023-05-07T09:17:27;5.43;;;1.87;;
19183;SDS011;9724;51.194;6.856;2023-05-07T09:19:54;4.03;;;1.90;;
19183;SDS011;9724;51.194;6.856;2023-05-07T09:22:20;1.87;;;1.77;;
19183;SDS011;9724;51.194;6.856;2023-05-07T09:24:47;2.57;;;1.70;;
19183;SDS011;9724;51.194;6.856;2023-05-07T09:27:14;6.03;;;1.70;;
19183;SDS011;9724;51.194;6.856;2023-05-07T09:29:40;3.73;;;1.80;;
19183;SDS011;9724;51.194;6.856;2023-05-07T09:32:07;3.00;;;1.80;;
19183;SDS011;9724;51.194;6.856;2023-05-07T09:34:34;3.10;;;1.70;;
19183;SDS011;9724;51.194;6.856;2023-05-07T09:37:02;1.90;;;1.80;;
19183;SDS011;9724;51.194;6.856;2023-05-07T09:39:38;4.27;;;1.70;;
19183;SDS011;9724;51.194;6.856;2023-05-07T09:42:04;2.00;;;1.90;;
19183;SDS011;9724;51.194;6.856;2023-05-07T09:44:32;5.87;;;2.00;;
19183;SDS011;9724;51.194;6.856;2023-05-07T09:46:59;1.93;;;1.80;;
19183;SDS011;9724;51.194;6.856;2023-05-07T09:49:27;2.83;;;1.93;;
19183;SDS011;9724;51.194;6.856;2023-05-07T09:51:55;2.07;;;1.73;;
19183;SDS011;9724;51.194;6.856;2023-05-07T09:54:23;5.00;;;2.07;;
19183;SDS011;9724;51.194;6.856;2023-05-07T09:56:49;2.13;;;1.67;;
19183;SDS011;9724;51.194;6.856;2023-05-07T09:59:16;2.50;;;1.73;;
19183;SDS011;9724;51.194;6.856;2023-05-07T10:01:43;1.53;;;1.43;;
19183;SDS011;9724;51.194;6.856;2023-05-07T10:04:10;2.40;;;1.50;;
19183;SDS011;9724;51.194;6.856;2023-05-07T10:06:37;2.43;;;1.40;;
19183;SDS011;9724;51.194;6.856;2023-05-07T10:09:04;1.70;;;1.60;;
19183;SDS011;9724;51.194;6.856;2023-05-07T10:11:31;1.70;;;1.57;;
19183;SDS011;9724;51.194;6.856;2023-05-07T10:13:58;1.47;;;1.37;;
19183;SDS011;9724;51.194;6.856;2023-05-07T10:16:30;2.33;;;1.33;;
19183;SDS011;9724;51.194;6.856;2023-05-07T10:18:58;1.57;;;1.47;;
19183;SDS011;9724;51.194;6.856;2023-05-07T10:21:24;2.10;;;1.50;;
19183;SDS011;9724;51.194;6.856;2023-05-07T10:23:53;1.40;;;1.30;;
19183;SDS011;9724;51.194;6.856;2023-05-07T10:26:23;1.33;;;1.30;;
19183;SDS011;9724;51.194;6.856;2023-05-07T10:28:53;1.20;;;1.17;;
19183;SDS011;9724;51.194;6.856;2023-05-07T10:34:15;1.90;;;1.10;;
19183;SDS011;9724;51.194;6.856;2023-05-07T10:36:45;4.03;;;1.13;;
19183;SDS011;9724;51.194;6.856;2023-05-07T10:39:11;2.47;;;1.10;;
19183;SDS011;9724;51.194;6.856;2023-05-07T10:41:38;1.77;;;1.17;;
19183;SDS011;9724;51.194;6.856;2023-05-07T10:44:05;1.43;;;1.33;;
19183;SDS011;9724;51.194;6.856;2023-05-07T10:46:31;2.53;;;1.50;;
19183;SDS011;9724;51.194;6.856;2023-05-07T10:49:07;3.63;;;1.27;;
19183;SDS011;9724;51.194;6.856;2023-05-07T10:51:37;1.50;;;1.40;;
19183;SDS011;9724;51.194;6.856;2023-05-07T10:54:18;1.67;;;1.00;;
19183;SDS011;9724;51.194;6.856;2023-05-07T10:56:45;1.43;;;1.30;;
19183;SDS011;9724;51.194;6.856;2023-05-07T11:02:00;2.50;;;1.20;;
19183;SDS011;9724;51.194;6.856;2023-05-07T11:04:29;3.20;;;1.43;;
19183;SDS011;9724;51.194;6.856;2023-05-07T11:09:54;2.67;;;1.40;;
19183;SDS011;9724;51.194;6.856;2023-05-07T11:15:37;5.23;;;1.40;;
19183;SDS011;9724;51.194;6.856;2023-05-07T11:18:04;3.93;;;1.23;;
19183;SDS011;9724;51.194;6.856;2023-05-07T11:20:47;1.40;;;1.30;;
19183;SDS011;9724;51.194;6.856;2023-05-07T11:26:23;1.37;;;1.27;;
19183;SDS011;9724;51.194;6.856;2023-05-07T11:28:50;1.80;;;1.10;;
19183;SDS011;9724;51.194;6.856;2023-05-07T11:31:20;4.37;;;1.23;;
19183;SDS011;9724;51.194;6.856;2023-05-07T11:33:47;1.40;;;1.30;;
19183;SDS011;9724;51.194;6.856;2023-05-07T11:36:13;5.63;;;1.77;;
19183;SDS011;9724;51.194;6.856;2023-05-07T11:38:40;3.07;;;1.30;;
19183;SDS011;9724;51.194;6.856;2023-05-07T11:41:07;2.23;;;1.20;;
19183;SDS011;9724;51.194;6.856;2023-05-07T11:43:33;1.43;;;1.20;;
19183;SDS011;9724;51.194;6.856;2023-05-07T11:46:05;4.73;;;1.17;;
19183;SDS011;9724;51.194;6.856;2023-05-07T11:48:32;4.87;;;1.33;;
19183;SDS011;9724;51.194;6.856;2023-05-07T11:51:00;6.27;;;1.03;;
19183;SDS011;9724;51.194;6.856;2023-05-07T11:53:27;1.60;;;1.40;;
19183;SDS011;9724;51.194;6.856;2023-05-07T11:55:54;2.53;;;1.27;;
19183;SDS011;9724;51.194;6.856;2023-05-07T11:58:22;3.67;;;1.20;;
19183;SDS011;9724;51.194;6.856;2023-05-07T12:00:50;1.37;;;1.37;;
19183;SDS011;9724;51.194;6.856;2023-05-07T12:03:18;2.00;;;1.50;;
19183;SDS011;9724;51.194;6.856;2023-05-07T12:05:44;2.33;;;1.30;;
19183;SDS011;9724;51.194;6.856;2023-05-07T12:08:13;1.50;;;1.40;;
19183;SDS011;9724;51.194;6.856;2023-05-07T12:10:40;1.30;;;1.10;;
19183;SDS011;9724;51.194;6.856;2023-05-07T12:13:13;3.13;;;1.40;;
19183;SDS011;9724;51.194;6.856;2023-05-07T12:15:41;2.10;;;1.20;;
19183;SDS011;9724;51.194;6.856;2023-05-07T12:18:07;2.50;;;1.30;;
19183;SDS011;9724;51.194;6.856;2023-05-07T12:20:33;3.37;;;1.20;;
19183;SDS011;9724;51.194;6.856;2023-05-07T12:23:01;1.10;;;1.10;;
19183;SDS011;9724;51.194;6.856;2023-05-07T12:25:29;1.90;;;1.17;;
19183;SDS011;9724;51.194;6.856;2023-05-07T12:27:56;2.00;;;1.20;;
19183;SDS011;9724;51.194;6.856;2023-05-07T12:30:24;1.37;;;1.23;;
19183;SDS011;9724;51.194;6.856;2023-05-07T12:32:54;1.10;;;1.10;;
19183;SDS011;9724;51.194;6.856;2023-05-07T12:35:26;5.37;;;1.20;;
19183;SDS011;9724;51.194;6.856;2023-05-07T12:37:54;1.30;;;1.17;;
19183;SDS011;9724;51.194;6.856;2023-05-07T12:40:23;12.70;;;1.60;;
19183;SDS011;9724;51.194;6.856;2023-05-07T12:42:52;5.23;;;1.23;;
19183;SDS011;9724;51.194;6.856;2023-05-07T12:45:19;5.87;;;1.50;;
19183;SDS011;9724;51.194;6.856;2023-05-07T12:47:46;1.50;;;1.27;;
19183;SDS011;9724;51.194;6.856;2023-05-07T12:50:13;1.30;;;1.20;;
19183;SDS011;9724;51.194;6.856;2023-05-07T12:52:40;1.27;;;1.27;;
19183;SDS011;9724;51.194;6.856;2023-05-07T12:55:07;2.60;;;1.30;;
19183;SDS011;9724;51.194;6.856;2023-05-07T12:57:37;2.60;;;1.50;;
19183;SDS011;9724;51.194;6.856;2023-05-07T13:00:04;2.13;;;1.33;;
19183;SDS011;9724;51.194;6.856;2023-05-07T13:02:32;1.40;;;1.30;;
19183;SDS011;9724;51.194;6.856;2023-05-07T13:04:58;1.40;;;1.27;;
19183;SDS011;9724;51.194;6.856;2023-05-07T13:07:25;3.73;;;1.60;;
19183;SDS011;9724;51.194;6.856;2023-05-07T13:09:56;4.50;;;1.50;;
19183;SDS011;9724;51.194;6.856;2023-05-07T13:12:22;1.80;;;1.50;;
19183;SDS011;9724;51.194;6.856;2023-05-07T13:14:48;4.20;;;1.80;;
19183;SDS011;9724;51.194;6.856;2023-05-07T13:17:18;2.30;;;1.60;;
19183;SDS011;9724;51.194;6.856;2023-05-07T13:19:46;1.57;;;1.47;;
19183;SDS011;9724;51.194;6.856;2023-05-07T13:22:13;2.20;;;1.40;;
19183;SDS011;9724;51.194;6.856;2023-05-07T13:24:40;4.60;;;1.40;;
19183;SDS011;9724;51.194;6.856;2023-05-07T13:27:09;5.27;;;1.60;;
19183;SDS011;9724;51.194;6.856;2023-05-07T13:29:35;4.67;;;1.80;;
19183;SDS011;9724;51.194;6.856;2023-05-07T13:32:01;5.77;;;2.40;;
19183;SDS011;9724;51.194;6.856;2023-05-07T13:34:28;9.23;;;2.80;;
19183;SDS011;9724;51.194;6.856;2023-05-07T13:36:54;13.17;;;3.20;;
19183;SDS011;9724;51.194;6.856;2023-05-07T13:39:24;7.50;;;2.70;;
19183;SDS011;9724;51.194;6.856;2023-05-07T13:41:51;14.80;;;3.13;;
19183;SDS011;9724;51.194;6.856;2023-05-07T13:44:17;6.17;;;2.77;;
19183;SDS011;9724;51.194;6.856;2023-05-07T13:46:43;5.57;;;3.23;;
19183;SDS011;9724;51.194;6.856;2023-05-07T13:49:10;6.57;;;3.00;;
19183;SDS011;9724;51.194;6.856;2023-05-07T13:51:37;5.67;;;3.40;;
19183;SDS011;9724;51.194;6.856;2023-05-07T13:54:07;5.50;;;3.23;;
19183;SDS011;9724;51.194;6.856;2023-05-07T13:56:36;13.70;;;3.43;;
19183;SDS011;9724;51.194;6.856;2023-05-07T13:59:03;9.60;;;3.63;;
19183;SDS011;9724;51.194;6.856;2023-05-07T14:01:30;7.20;;;3.40;;
19183;SDS011;9724;51.194;6.856;2023-05-07T14:03:57;8.10;;;3.70;;
19183;SDS011;9724;51.194;6.856;2023-05-07T14:06:23;13.83;;;5.70;;
19183;SDS011;9724;51.194;6.856;2023-05-07T14:08:49;38.17;;;6.63;;
19183;SDS011;9724;51.194;6.856;2023-05-07T14:11:16;21.30;;;6.27;;
19183;SDS011;9724;51.194;6.856;2023-05-07T14:13:42;12.93;;;4.83;;
19183;SDS011;9724;51.194;6.856;2023-05-07T14:16:09;14.63;;;4.30;;
19183;SDS011;9724;51.194;6.856;2023-05-07T14:18:35;10.27;;;3.77;;
19183;SDS011;9724;51.194;6.856;2023-05-07T14:21:02;13.10;;;5.23;;
19183;SDS011;9724;51.194;6.856;2023-05-07T14:23:31;10.07;;;5.67;;
19183;SDS011;9724;51.194;6.856;2023-05-07T14:25:57;12.63;;;6.10;;
19183;SDS011;9724;51.194;6.856;2023-05-07T14:28:24;14.83;;;6.93;;
19183;SDS011;9724;51.194;6.856;2023-05-07T14:30:50;12.73;;;7.10;;
19183;SDS011;9724;51.194;6.856;2023-05-07T14:33:26;14.93;;;7.20;;
19183;SDS011;9724;51.194;6.856;2023-05-07T14:35:53;10.53;;;7.33;;
19183;SDS011;9724;51.194;6.856;2023-05-07T14:38:19;12.30;;;7.40;;
19183;SDS011;9724;51.194;6.856;2023-05-07T14:40:47;12.63;;;6.60;;
19183;SDS011;9724;51.194;6.856;2023-05-07T14:43:13;11.67;;;7.37;;
19183;SDS011;9724;51.194;6.856;2023-05-07T14:45:49;17.27;;;8.17;;
19183;SDS011;9724;51.194;6.856;2023-05-07T14:48:16;13.43;;;7.60;;
19183;SDS011;9724;51.194;6.856;2023-05-07T14:50:47;21.33;;;8.60;;
19183;SDS011;9724;51.194;6.856;2023-05-07T14:53:14;12.20;;;8.73;;
19183;SDS011;9724;51.194;6.856;2023-05-07T14:55:41;15.97;;;8.90;;
19183;SDS011;9724;51.194;6.856;2023-05-07T14:58:08;15.03;;;7.70;;
19183;SDS011;9724;51.194;6.856;2023-05-07T15:00:43;12.83;;;8.03;;
19183;SDS011;9724;51.194;6.856;2023-05-07T15:03:10;13.37;;;8.30;;
19183;SDS011;9724;51.194;6.856;2023-05-07T15:05:37;12.03;;;8.30;;
19183;SDS011;9724;51.194;6.856;2023-05-07T15:08:04;11.33;;;7.37;;
19183;SDS011;9724;51.194;6.856;2023-05-07T15:10:30;9.97;;;6.83;;
19183;SDS011;9724;51.194;6.856;2023-05-07T15:12:58;10.37;;;7.30;;
19183;SDS011;9724;51.194;6.856;2023-05-07T15:15:24;12.03;;;7.17;;
19183;SDS011;9724;51.194;6.856;2023-05-07T15:17:51;14.30;;;6.73;;
19183;SDS011;9724;51.194;6.856;2023-05-07T15:20:18;10.77;;;6.17;;
19183;SDS011;9724;51.194;6.856;2023-05-07T15:22:44;7.17;;;5.33;;